sensor_id;sensor_type;location;lat;lon;timestamp;P1;durP1;ratioP1;P2;durP2;ratioP2
18689;SDS011;9782;52.930;15.562;2022-11-13T00:00:00;15.73;;;10.10;;
18689;SDS011;9782;52.930;15.562;2022-11-13T00:02:27;16.20;;;9.40;;
18689;SDS011;9782;52.930;15.562;2022-11-13T00:04:54;14.03;;;8.80;;
18689;SDS011;9782;52.930;15.562;2022-11-13T00:07:21;16.90;;;9.30;;
18689;SDS011;9782;52.930;15.562;2022-11-13T00:09:49;18.13;;;12.30;;
18689;SDS011;9782;52.930;15.562;2022-11-13T00:12:16;21.57;;;11.60;;
18689;SDS011;9782;52.930;15.562;2022-11-13T00:14:43;15.93;;;9.83;;
18689;SDS011;9782;52.930;15.562;2022-11-13T00:17:10;15.53;;;8.70;;
18689;SDS011;9782;52.930;15.562;2022-11-13T00:19:37;37.80;;;18.80;;
18689;SDS011;9782;52.930;15.562;2022-11-13T00:22:04;15.87;;;8.07;;
18689;SDS011;9782;52.930;15.562;2022-11-13T00:24:31;13.97;;;8.03;;
18689;SDS011;9782;52.930;15.562;2022-11-13T00:27:00;15.83;;;8.17;;
18689;SDS011;9782;52.930;15.562;2022-11-13T00:29:27;14.43;;;8.43;;
18689;SDS011;9782;52.930;15.562;2022-11-13T00:31:54;13.87;;;8.40;;
18689;SDS011;9782;52.930;15.562;2022-11-13T00:34:21;13.57;;;7.97;;
18689;SDS011;9782;52.930;15.562;2022-11-13T00:36:48;16.77;;;11.20;;
18689;SDS011;9782;52.930;15.562;2022-11-13T00:39:15;20.73;;;12.17;;
18689;SDS011;9782;52.930;15.562;2022-11-13T00:41:42;22.93;;;10.03;;
18689;SDS011;9782;52.930;15.562;2022-11-13T00:44:10;19.67;;;12.73;;
18689;SDS011;9782;52.930;15.562;2022-11-13T00:46:37;29.07;;;18.00;;
18689;SDS011;9782;52.930;15.562;2022-11-13T00:49:04;23.80;;;14.87;;
18689;SDS011;9782;52.930;15.562;2022-11-13T00:51:31;15.23;;;9.43;;
18689;SDS011;9782;52.930;15.562;2022-11-13T00:53:58;16.10;;;8.67;;
18689;SDS011;9782;52.930;15.562;2022-11-13T00:56:26;22.57;;;15.20;;
18689;SDS011;9782;52.930;15.562;2022-11-13T00:58:53;14.90;;;8.80;;
18689;SDS011;9782;52.930;15.562;2022-11-13T01:01:21;61.53;;;10.90;;
18689;SDS011;9782;52.930;15.562;2022-11-13T01:03:48;17.27;;;8.80;;
18689;SDS011;9782;52.930;15.562;2022-11-13T01:06:17;15.97;;;8.33;;
18689;SDS011;9782;52.930;15.562;2022-11-13T01:08:47;12.40;;;8.60;;
18689;SDS011;9782;52.930;15.562;2022-11-13T01:11:16;20.03;;;9.40;;
18689;SDS011;9782;52.930;15.562;2022-11-13T01:13:46;14.40;;;8.17;;
18689;SDS011;9782;52.930;15.562;2022-11-13T01:16:14;20.63;;;8.47;;
18689;SDS011;9782;52.930;15.562;2022-11-13T01:18:44;239.00;;;15.27;;
18689;SDS011;9782;52.930;15.562;2022-11-13T01:21:12;106.87;;;12.30;;
18689;SDS011;9782;52.930;15.562;2022-11-13T01:23:40;35.57;;;10.50;;
18689;SDS011;9782;52.930;15.562;2022-11-13T01:26:09;46.70;;;9.80;;
18689;SDS011;9782;52.930;15.562;2022-11-13T01:28:38;82.30;;;11.47;;
18689;SDS011;9782;52.930;15.562;2022-11-13T01:31:05;21.60;;;9.13;;
18689;SDS011;9782;52.930;15.562;2022-11-13T01:33:33;27.87;;;10.47;;
18689;SDS011;9782;52.930;15.562;2022-11-13T01:36:02;20.17;;;9.83;;
18689;SDS011;9782;52.930;15.562;2022-11-13T01:38:31;108.33;;;13.77;;
18689;SDS011;9782;52.930;15.562;2022-11-13T01:40:58;49.07;;;10.90;;
18689;SDS011;9782;52.930;15.562;2022-11-13T01:43:27;20.13;;;9.60;;
18689;SDS011;9782;52.930;15.562;2022-11-13T01:46:08;20.47;;;10.10;;
18689;SDS011;9782;52.930;15.562;2022-11-13T01:48:43;19.33;;;9.43;;
18689;SDS011;9782;52.930;15.562;2022-11-13T01:51:15;18.87;;;8.20;;
18689;SDS011;9782;52.930;15.562;2022-11-13T01:53:48;18.97;;;8.10;;
18689;SDS011;9782;52.930;15.562;2022-11-13T01:56:16;24.97;;;8.70;;
18689;SDS011;9782;52.930;15.562;2022-11-13T01:59:03;15.73;;;8.53;;
18689;SDS011;9782;52.930;15.562;2022-11-13T02:01:36;10.60;;;7.93;;
18689;SDS011;9782;52.930;15.562;2022-11-13T02:04:03;13.00;;;8.13;;
18689;SDS011;9782;52.930;15.562;2022-11-13T02:06:33;13.70;;;8.27;;
18689;SDS011;9782;52.930;15.562;2022-11-13T02:09:06;10.40;;;8.03;;
18689;SDS011;9782;52.930;15.562;2022-11-13T02:11:34;16.23;;;9.03;;
18689;SDS011;9782;52.930;15.562;2022-11-13T02:14:02;19.73;;;8.83;;
18689;SDS011;9782;52.930;15.562;2022-11-13T02:16:31;17.90;;;9.23;;
18689;SDS011;9782;52.930;15.562;2022-11-13T02:19:03;17.50;;;8.90;;
18689;SDS011;9782;52.930;15.562;2022-11-13T02:21:38;17.77;;;9.63;;
18689;SDS011;9782;52.930;15.562;2022-11-13T02:24:21;28.57;;;9.53;;
18689;SDS011;9782;52.930;15.562;2022-11-13T02:26:53;14.20;;;5.27;;
18689;SDS011;9782;52.930;15.562;2022-11-13T02:29:23;14.63;;;7.20;;
18689;SDS011;9782;52.930;15.562;2022-11-13T02:31:50;12.50;;;8.03;;
18689;SDS011;9782;52.930;15.562;2022-11-13T02:34:18;15.87;;;8.53;;
18689;SDS011;9782;52.930;15.562;2022-11-13T02:36:45;20.20;;;8.30;;
18689;SDS011;9782;52.930;15.562;2022-11-13T02:39:12;13.07;;;7.43;;
18689;SDS011;9782;52.930;15.562;2022-11-13T02:41:41;14.17;;;8.03;;
18689;SDS011;9782;52.930;15.562;2022-11-13T02:44:08;17.87;;;7.33;;
18689;SDS011;9782;52.930;15.562;2022-11-13T02:46:35;13.27;;;7.33;;
18689;SDS011;9782;52.930;15.562;2022-11-13T02:49:02;18.70;;;8.37;;
18689;SDS011;9782;52.930;15.562;2022-11-13T02:51:30;15.20;;;7.67;;
18689;SDS011;9782;52.930;15.562;2022-11-13T02:53:57;15.80;;;7.70;;
18689;SDS011;9782;52.930;15.562;2022-11-13T02:56:24;12.97;;;7.43;;
18689;SDS011;9782;52.930;15.562;2022-11-13T02:58:53;13.37;;;7.60;;
18689;SDS011;9782;52.930;15.562;2022-11-13T03:01:20;17.80;;;8.07;;
18689;SDS011;9782;52.930;15.562;2022-11-13T03:03:47;12.57;;;7.37;;
18689;SDS011;9782;52.930;15.562;2022-11-13T03:06:15;15.63;;;7.93;;
18689;SDS011;9782;52.930;15.562;2022-11-13T03:08:42;14.00;;;7.90;;
18689;SDS011;9782;52.930;15.562;2022-11-13T03:11:09;15.50;;;8.07;;
18689;SDS011;9782;52.930;15.562;2022-11-13T03:13:37;15.30;;;7.87;;
18689;SDS011;9782;52.930;15.562;2022-11-13T03:16:10;17.37;;;7.10;;
18689;SDS011;9782;52.930;15.562;2022-11-13T03:18:38;16.30;;;7.10;;
18689;SDS011;9782;52.930;15.562;2022-11-13T03:21:06;13.17;;;7.17;;
18689;SDS011;9782;52.930;15.562;2022-11-13T03:23:35;11.77;;;6.70;;
18689;SDS011;9782;52.930;15.562;2022-11-13T03:26:03;15.63;;;7.37;;
18689;SDS011;9782;52.930;15.562;2022-11-13T03:28:32;12.13;;;6.87;;
18689;SDS011;9782;52.930;15.562;2022-11-13T03:30:59;17.17;;;7.77;;
18689;SDS011;9782;52.930;15.562;2022-11-13T03:33:28;15.87;;;8.07;;
18689;SDS011;9782;52.930;15.562;2022-11-13T03:35:55;14.67;;;8.13;;
18689;SDS011;9782;52.930;15.562;2022-11-13T03:38:22;12.07;;;6.90;;
18689;SDS011;9782;52.930;15.562;2022-11-13T03:40:49;12.80;;;6.70;;
18689;SDS011;9782;52.930;15.562;2022-11-13T03:43:17;11.23;;;6.00;;
18689;SDS011;9782;52.930;15.562;2022-11-13T03:45:44;10.23;;;6.40;;
18689;SDS011;9782;52.930;15.562;2022-11-13T03:48:12;8.47;;;5.43;;
18689;SDS011;9782;52.930;15.562;2022-11-13T03:50:43;9.23;;;5.50;;
18689;SDS011;9782;52.930;15.562;2022-11-13T03:53:12;10.70;;;5.77;;
18689;SDS011;9782;52.930;15.562;2022-11-13T03:55:39;12.73;;;6.17;;
18689;SDS011;9782;52.930;15.562;2022-11-13T03:58:07;9.83;;;5.87;;
18689;SDS011;9782;52.930;15.562;2022-11-13T04:00:34;11.70;;;6.87;;
18689;SDS011;9782;52.930;15.562;2022-11-13T04:03:01;10.67;;;7.00;;
18689;SDS011;9782;52.930;15.562;2022-11-13T04:05:29;10.43;;;6.43;;
18689;SDS011;9782;52.930;15.562;2022-11-13T04:07:57;11.83;;;6.40;;
18689;SDS011;9782;52.930;15.562;2022-11-13T04:10:24;10.03;;;6.70;;
18689;SDS011;9782;52.930;15.562;2022-11-13T04:12:51;11.17;;;6.70;;
18689;SDS011;9782;52.930;15.562;2022-11-13T04:15:18;11.60;;;6.83;;
18689;SDS011;9782;52.930;15.562;2022-11-13T04:17:46;9.70;;;6.67;;
18689;SDS011;9782;52.930;15.562;2022-11-13T04:20:14;10.60;;;6.80;;
18689;SDS011;9782;52.930;15.562;2022-11-13T04:22:41;11.40;;;7.10;;
18689;SDS011;9782;52.930;15.562;2022-11-13T04:25:10;12.80;;;7.20;;
18689;SDS011;9782;52.930;15.562;2022-11-13T04:27:37;9.73;;;6.90;;
18689;SDS011;9782;52.930;15.562;2022-11-13T04:30:04;14.27;;;7.77;;
18689;SDS011;9782;52.930;15.562;2022-11-13T04:32:32;10.87;;;7.90;;
18689;SDS011;9782;52.930;15.562;2022-11-13T04:34:59;12.93;;;8.07;;
18689;SDS011;9782;52.930;15.562;2022-11-13T04:37:26;15.20;;;7.77;;
18689;SDS011;9782;52.930;15.562;2022-11-13T04:39:53;11.00;;;8.00;;
18689;SDS011;9782;52.930;15.562;2022-11-13T04:42:22;12.77;;;8.40;;
18689;SDS011;9782;52.930;15.562;2022-11-13T04:45:06;12.43;;;8.27;;
18689;SDS011;9782;52.930;15.562;2022-11-13T04:47:34;14.00;;;7.90;;
18689;SDS011;9782;52.930;15.562;2022-11-13T04:50:01;10.37;;;7.50;;
18689;SDS011;9782;52.930;15.562;2022-11-13T04:52:28;14.80;;;7.93;;
18689;SDS011;9782;52.930;15.562;2022-11-13T04:54:55;13.00;;;8.23;;
18689;SDS011;9782;52.930;15.562;2022-11-13T04:57:24;10.63;;;7.30;;
18689;SDS011;9782;52.930;15.562;2022-11-13T04:59:51;11.27;;;7.27;;
18689;SDS011;9782;52.930;15.562;2022-11-13T05:02:18;10.73;;;7.10;;
18689;SDS011;9782;52.930;15.562;2022-11-13T05:04:45;12.87;;;7.13;;
18689;SDS011;9782;52.930;15.562;2022-11-13T05:07:12;9.63;;;7.20;;
18689;SDS011;9782;52.930;15.562;2022-11-13T05:09:39;9.57;;;6.83;;
18689;SDS011;9782;52.930;15.562;2022-11-13T05:12:06;12.83;;;7.70;;
18689;SDS011;9782;52.930;15.562;2022-11-13T05:14:35;13.13;;;7.93;;
18689;SDS011;9782;52.930;15.562;2022-11-13T05:17:03;11.83;;;7.43;;
18689;SDS011;9782;52.930;15.562;2022-11-13T05:19:31;10.37;;;7.40;;
18689;SDS011;9782;52.930;15.562;2022-11-13T05:21:59;14.03;;;8.03;;
18689;SDS011;9782;52.930;15.562;2022-11-13T05:24:26;13.80;;;7.77;;
18689;SDS011;9782;52.930;15.562;2022-11-13T05:26:53;11.50;;;7.67;;
18689;SDS011;9782;52.930;15.562;2022-11-13T05:29:20;10.70;;;7.83;;
18689;SDS011;9782;52.930;15.562;2022-11-13T05:31:49;12.67;;;8.13;;
18689;SDS011;9782;52.930;15.562;2022-11-13T05:34:16;10.83;;;7.70;;
18689;SDS011;9782;52.930;15.562;2022-11-13T05:36:43;9.90;;;6.77;;
18689;SDS011;9782;52.930;15.562;2022-11-13T05:39:11;13.43;;;7.00;;
18689;SDS011;9782;52.930;15.562;2022-11-13T05:41:38;9.33;;;6.73;;
18689;SDS011;9782;52.930;15.562;2022-11-13T05:44:05;12.63;;;6.60;;
18689;SDS011;9782;52.930;15.562;2022-11-13T05:46:32;10.77;;;6.80;;
18689;SDS011;9782;52.930;15.562;2022-11-13T05:49:01;11.03;;;7.27;;
18689;SDS011;9782;52.930;15.562;2022-11-13T05:51:29;9.03;;;6.40;;
18689;SDS011;9782;52.930;15.562;2022-11-13T05:53:57;9.33;;;6.53;;
18689;SDS011;9782;52.930;15.562;2022-11-13T05:56:25;9.77;;;6.60;;
18689;SDS011;9782;52.930;15.562;2022-11-13T05:58:55;9.00;;;6.27;;
18689;SDS011;9782;52.930;15.562;2022-11-13T06:01:24;11.50;;;6.50;;
18689;SDS011;9782;52.930;15.562;2022-11-13T06:03:53;10.87;;;6.40;;
18689;SDS011;9782;52.930;15.562;2022-11-13T06:06:24;8.07;;;5.87;;
18689;SDS011;9782;52.930;15.562;2022-11-13T06:08:56;8.60;;;5.80;;
18689;SDS011;9782;52.930;15.562;2022-11-13T06:11:24;8.70;;;5.90;;
18689;SDS011;9782;52.930;15.562;2022-11-13T06:13:53;8.97;;;6.10;;
18689;SDS011;9782;52.930;15.562;2022-11-13T06:16:22;8.50;;;5.50;;
18689;SDS011;9782;52.930;15.562;2022-11-13T06:18:52;9.43;;;6.10;;
18689;SDS011;9782;52.930;15.562;2022-11-13T06:21:21;9.30;;;6.07;;
18689;SDS011;9782;52.930;15.562;2022-11-13T06:23:50;10.80;;;5.83;;
18689;SDS011;9782;52.930;15.562;2022-11-13T06:26:18;11.27;;;6.17;;
18689;SDS011;9782;52.930;15.562;2022-11-13T06:28:46;9.03;;;6.00;;
18689;SDS011;9782;52.930;15.562;2022-11-13T06:31:14;8.63;;;5.40;;
18689;SDS011;9782;52.930;15.562;2022-11-13T06:33:43;9.53;;;5.67;;
18689;SDS011;9782;52.930;15.562;2022-11-13T06:36:11;8.83;;;5.67;;
18689;SDS011;9782;52.930;15.562;2022-11-13T06:38:41;9.83;;;6.07;;
18689;SDS011;9782;52.930;15.562;2022-11-13T06:41:09;10.73;;;5.67;;
18689;SDS011;9782;52.930;15.562;2022-11-13T06:43:38;8.83;;;5.67;;
18689;SDS011;9782;52.930;15.562;2022-11-13T06:46:05;8.37;;;5.40;;
18689;SDS011;9782;52.930;15.562;2022-11-13T06:48:36;9.07;;;5.93;;
18689;SDS011;9782;52.930;15.562;2022-11-13T06:51:03;11.97;;;6.50;;
18689;SDS011;9782;52.930;15.562;2022-11-13T06:53:32;10.20;;;6.37;;
18689;SDS011;9782;52.930;15.562;2022-11-13T06:56:03;9.20;;;6.00;;
18689;SDS011;9782;52.930;15.562;2022-11-13T06:58:31;13.90;;;7.87;;
18689;SDS011;9782;52.930;15.562;2022-11-13T07:01:03;15.10;;;8.07;;
18689;SDS011;9782;52.930;15.562;2022-11-13T07:03:31;11.13;;;7.37;;
18689;SDS011;9782;52.930;15.562;2022-11-13T07:05:59;12.17;;;7.47;;
18689;SDS011;9782;52.930;15.562;2022-11-13T07:08:27;14.27;;;8.93;;
18689;SDS011;9782;52.930;15.562;2022-11-13T07:10:55;17.43;;;10.57;;
18689;SDS011;9782;52.930;15.562;2022-11-13T07:13:24;13.20;;;8.90;;
18689;SDS011;9782;52.930;15.562;2022-11-13T07:15:53;16.60;;;9.40;;
18689;SDS011;9782;52.930;15.562;2022-11-13T07:18:20;11.27;;;7.03;;
18689;SDS011;9782;52.930;15.562;2022-11-13T07:20:48;11.27;;;7.47;;
18689;SDS011;9782;52.930;15.562;2022-11-13T07:23:15;9.93;;;6.60;;
18689;SDS011;9782;52.930;15.562;2022-11-13T07:25:42;10.53;;;6.40;;
18689;SDS011;9782;52.930;15.562;2022-11-13T07:28:09;11.87;;;7.03;;
18689;SDS011;9782;52.930;15.562;2022-11-13T07:30:37;12.33;;;6.97;;
18689;SDS011;9782;52.930;15.562;2022-11-13T07:33:04;9.00;;;6.37;;
18689;SDS011;9782;52.930;15.562;2022-11-13T07:35:32;10.70;;;6.80;;
18689;SDS011;9782;52.930;15.562;2022-11-13T07:37:59;12.47;;;8.27;;
18689;SDS011;9782;52.930;15.562;2022-11-13T07:40:26;12.17;;;6.97;;
18689;SDS011;9782;52.930;15.562;2022-11-13T07:42:56;10.77;;;7.20;;
18689;SDS011;9782;52.930;15.562;2022-11-13T07:45:24;11.30;;;7.30;;
18689;SDS011;9782;52.930;15.562;2022-11-13T07:47:57;12.23;;;7.00;;
18689;SDS011;9782;52.930;15.562;2022-11-13T07:50:25;10.13;;;7.07;;
18689;SDS011;9782;52.930;15.562;2022-11-13T07:52:56;10.83;;;7.23;;
18689;SDS011;9782;52.930;15.562;2022-11-13T07:55:23;11.63;;;7.70;;
18689;SDS011;9782;52.930;15.562;2022-11-13T07:57:50;12.07;;;7.80;;
18689;SDS011;9782;52.930;15.562;2022-11-13T08:00:20;10.93;;;7.53;;
18689;SDS011;9782;52.930;15.562;2022-11-13T08:02:47;13.00;;;7.47;;
18689;SDS011;9782;52.930;15.562;2022-11-13T08:05:16;9.37;;;6.20;;
18689;SDS011;9782;52.930;15.562;2022-11-13T08:07:45;9.20;;;6.83;;
18689;SDS011;9782;52.930;15.562;2022-11-13T08:10:13;10.73;;;7.27;;
18689;SDS011;9782;52.930;15.562;2022-11-13T08:12:40;10.37;;;6.83;;
18689;SDS011;9782;52.930;15.562;2022-11-13T08:15:08;8.17;;;6.00;;
18689;SDS011;9782;52.930;15.562;2022-11-13T08:17:36;8.60;;;6.20;;
18689;SDS011;9782;52.930;15.562;2022-11-13T08:20:03;9.17;;;5.40;;
18689;SDS011;9782;52.930;15.562;2022-11-13T08:22:33;9.03;;;6.00;;
18689;SDS011;9782;52.930;15.562;2022-11-13T08:25:00;9.13;;;6.20;;
18689;SDS011;9782;52.930;15.562;2022-11-13T08:27:27;9.20;;;5.77;;
18689;SDS011;9782;52.930;15.562;2022-11-13T08:29:54;9.23;;;6.43;;
18689;SDS011;9782;52.930;15.562;2022-11-13T08:32:21;8.80;;;7.07;;
18689;SDS011;9782;52.930;15.562;2022-11-13T08:34:48;7.80;;;6.30;;
18689;SDS011;9782;52.930;15.562;2022-11-13T08:37:15;9.03;;;6.07;;
18689;SDS011;9782;52.930;15.562;2022-11-13T08:39:43;7.87;;;5.77;;
18689;SDS011;9782;52.930;15.562;2022-11-13T08:42:10;9.63;;;6.37;;
18689;SDS011;9782;52.930;15.562;2022-11-13T08:44:38;9.97;;;6.70;;
18689;SDS011;9782;52.930;15.562;2022-11-13T08:47:05;11.17;;;6.20;;
18689;SDS011;9782;52.930;15.562;2022-11-13T08:49:32;11.47;;;6.87;;
18689;SDS011;9782;52.930;15.562;2022-11-13T08:51:59;13.73;;;7.70;;
18689;SDS011;9782;52.930;15.562;2022-11-13T08:54:27;10.50;;;7.27;;
18689;SDS011;9782;52.930;15.562;2022-11-13T08:56:58;11.13;;;7.47;;
18689;SDS011;9782;52.930;15.562;2022-11-13T08:59:25;10.10;;;6.83;;
18689;SDS011;9782;52.930;15.562;2022-11-13T09:01:52;10.10;;;6.67;;
18689;SDS011;9782;52.930;15.562;2022-11-13T09:04:23;10.13;;;6.80;;
18689;SDS011;9782;52.930;15.562;2022-11-13T09:06:50;12.07;;;6.93;;
18689;SDS011;9782;52.930;15.562;2022-11-13T09:09:18;9.23;;;6.63;;
18689;SDS011;9782;52.930;15.562;2022-11-13T09:11:46;11.17;;;6.67;;
18689;SDS011;9782;52.930;15.562;2022-11-13T09:14:14;10.97;;;7.77;;
18689;SDS011;9782;52.930;15.562;2022-11-13T09:16:41;12.60;;;8.77;;
18689;SDS011;9782;52.930;15.562;2022-11-13T09:19:08;15.63;;;10.17;;
18689;SDS011;9782;52.930;15.562;2022-11-13T09:21:35;13.60;;;9.40;;
18689;SDS011;9782;52.930;15.562;2022-11-13T09:24:02;15.00;;;9.00;;
18689;SDS011;9782;52.930;15.562;2022-11-13T09:26:30;13.50;;;9.17;;
18689;SDS011;9782;52.930;15.562;2022-11-13T09:28:57;12.57;;;8.37;;
18689;SDS011;9782;52.930;15.562;2022-11-13T09:31:26;13.70;;;8.70;;
18689;SDS011;9782;52.930;15.562;2022-11-13T09:33:53;13.07;;;8.93;;
18689;SDS011;9782;52.930;15.562;2022-11-13T09:36:20;11.90;;;7.70;;
18689;SDS011;9782;52.930;15.562;2022-11-13T09:38:47;13.80;;;7.80;;
18689;SDS011;9782;52.930;15.562;2022-11-13T09:41:16;14.03;;;9.50;;
18689;SDS011;9782;52.930;15.562;2022-11-13T09:43:45;14.67;;;10.43;;
18689;SDS011;9782;52.930;15.562;2022-11-13T09:46:16;11.93;;;7.33;;
18689;SDS011;9782;52.930;15.562;2022-11-13T09:48:50;15.00;;;9.07;;
18689;SDS011;9782;52.930;15.562;2022-11-13T09:51:21;11.27;;;7.53;;
18689;SDS011;9782;52.930;15.562;2022-11-13T09:53:51;18.00;;;10.67;;
18689;SDS011;9782;52.930;15.562;2022-11-13T09:56:23;14.13;;;8.67;;
18689;SDS011;9782;52.930;15.562;2022-11-13T09:58:55;10.50;;;7.30;;
18689;SDS011;9782;52.930;15.562;2022-11-13T10:01:28;13.23;;;8.30;;
18689;SDS011;9782;52.930;15.562;2022-11-13T10:04:01;12.73;;;9.33;;
18689;SDS011;9782;52.930;15.562;2022-11-13T10:06:38;15.57;;;8.30;;
18689;SDS011;9782;52.930;15.562;2022-11-13T10:09:21;17.57;;;9.93;;
18689;SDS011;9782;52.930;15.562;2022-11-13T10:11:56;20.27;;;13.43;;
18689;SDS011;9782;52.930;15.562;2022-11-13T10:14:28;17.97;;;12.17;;
18689;SDS011;9782;52.930;15.562;2022-11-13T10:17:00;14.93;;;9.53;;
18689;SDS011;9782;52.930;15.562;2022-11-13T10:19:35;15.33;;;10.20;;
18689;SDS011;9782;52.930;15.562;2022-11-13T10:22:10;17.57;;;11.03;;
18689;SDS011;9782;52.930;15.562;2022-11-13T10:24:42;15.57;;;9.33;;
18689;SDS011;9782;52.930;15.562;2022-11-13T10:27:11;13.70;;;8.93;;
18689;SDS011;9782;52.930;15.562;2022-11-13T10:29:40;17.60;;;9.87;;
18689;SDS011;9782;52.930;15.562;2022-11-13T10:32:15;13.27;;;9.27;;
18689;SDS011;9782;52.930;15.562;2022-11-13T10:34:47;14.90;;;8.57;;
18689;SDS011;9782;52.930;15.562;2022-11-13T10:37:23;15.23;;;8.83;;
18689;SDS011;9782;52.930;15.562;2022-11-13T10:40:04;15.70;;;9.50;;
18689;SDS011;9782;52.930;15.562;2022-11-13T10:42:35;13.97;;;9.17;;
18689;SDS011;9782;52.930;15.562;2022-11-13T10:45:11;14.63;;;8.90;;
18689;SDS011;9782;52.930;15.562;2022-11-13T10:47:42;14.43;;;8.47;;
18689;SDS011;9782;52.930;15.562;2022-11-13T10:50:18;11.70;;;8.10;;
18689;SDS011;9782;52.930;15.562;2022-11-13T10:52:47;13.10;;;8.40;;
18689;SDS011;9782;52.930;15.562;2022-11-13T10:55:19;14.73;;;9.77;;
18689;SDS011;9782;52.930;15.562;2022-11-13T10:57:53;12.43;;;7.97;;
18689;SDS011;9782;52.930;15.562;2022-11-13T11:00:23;10.67;;;7.37;;
18689;SDS011;9782;52.930;15.562;2022-11-13T11:02:52;10.73;;;7.10;;
18689;SDS011;9782;52.930;15.562;2022-11-13T11:05:21;9.23;;;6.77;;
18689;SDS011;9782;52.930;15.562;2022-11-13T11:07:49;10.27;;;6.67;;
18689;SDS011;9782;52.930;15.562;2022-11-13T11:10:19;10.37;;;6.23;;
18689;SDS011;9782;52.930;15.562;2022-11-13T11:12:55;7.63;;;5.53;;
18689;SDS011;9782;52.930;15.562;2022-11-13T11:15:26;8.50;;;5.87;;
18689;SDS011;9782;52.930;15.562;2022-11-13T11:17:56;8.30;;;5.40;;
18689;SDS011;9782;52.930;15.562;2022-11-13T11:20:37;8.93;;;5.97;;
18689;SDS011;9782;52.930;15.562;2022-11-13T11:23:14;9.63;;;6.00;;
18689;SDS011;9782;52.930;15.562;2022-11-13T11:25:48;9.77;;;7.50;;
18689;SDS011;9782;52.930;15.562;2022-11-13T11:28:27;8.27;;;6.43;;
18689;SDS011;9782;52.930;15.562;2022-11-13T11:31:00;9.90;;;6.27;;
18689;SDS011;9782;52.930;15.562;2022-11-13T11:33:35;8.87;;;6.20;;
18689;SDS011;9782;52.930;15.562;2022-11-13T11:36:14;8.83;;;6.17;;
18689;SDS011;9782;52.930;15.562;2022-11-13T11:38:49;8.80;;;6.60;;
18689;SDS011;9782;52.930;15.562;2022-11-13T11:41:20;9.50;;;6.47;;
18689;SDS011;9782;52.930;15.562;2022-11-13T11:43:53;9.27;;;6.83;;
18689;SDS011;9782;52.930;15.562;2022-11-13T11:46:26;9.73;;;7.20;;
18689;SDS011;9782;52.930;15.562;2022-11-13T11:48:56;11.27;;;7.07;;
18689;SDS011;9782;52.930;15.562;2022-11-13T11:51:29;9.63;;;6.30;;
18689;SDS011;9782;52.930;15.562;2022-11-13T11:54:01;9.90;;;7.20;;
18689;SDS011;9782;52.930;15.562;2022-11-13T11:56:38;10.00;;;6.93;;
18689;SDS011;9782;52.930;15.562;2022-11-13T12:02:11;10.93;;;7.20;;
18689;SDS011;9782;52.930;15.562;2022-11-13T12:04:59;10.30;;;7.63;;
18689;SDS011;9782;52.930;15.562;2022-11-13T12:07:39;13.03;;;7.50;;
18689;SDS011;9782;52.930;15.562;2022-11-13T12:10:21;11.07;;;8.00;;
18689;SDS011;9782;52.930;15.562;2022-11-13T12:12:56;11.73;;;8.53;;
18689;SDS011;9782;52.930;15.562;2022-11-13T12:15:33;12.50;;;8.13;;
18689;SDS011;9782;52.930;15.562;2022-11-13T12:18:09;11.97;;;8.60;;
18689;SDS011;9782;52.930;15.562;2022-11-13T12:20:42;12.53;;;9.00;;
18689;SDS011;9782;52.930;15.562;2022-11-13T12:26:14;14.27;;;10.23;;
18689;SDS011;9782;52.930;15.562;2022-11-13T12:28:49;13.00;;;10.10;;
18689;SDS011;9782;52.930;15.562;2022-11-13T12:31:25;16.07;;;10.97;;
18689;SDS011;9782;52.930;15.562;2022-11-13T12:34:07;16.00;;;10.83;;
18689;SDS011;9782;52.930;15.562;2022-11-13T12:36:49;16.70;;;10.97;;
18689;SDS011;9782;52.930;15.562;2022-11-13T12:39:30;18.40;;;14.02;;
18689;SDS011;9782;52.930;15.562;2022-11-13T12:42:07;17.67;;;12.40;;
18689;SDS011;9782;52.930;15.562;2022-11-13T12:44:45;17.93;;;12.93;;
18689;SDS011;9782;52.930;15.562;2022-11-13T12:47:17;16.70;;;12.63;;
18689;SDS011;9782;52.930;15.562;2022-11-13T12:49:44;19.63;;;13.67;;
18689;SDS011;9782;52.930;15.562;2022-11-13T12:52:18;17.13;;;12.77;;
18689;SDS011;9782;52.930;15.562;2022-11-13T12:54:49;16.97;;;12.20;;
18689;SDS011;9782;52.930;15.562;2022-11-13T12:57:20;20.97;;;15.10;;
18689;SDS011;9782;52.930;15.562;2022-11-13T12:59:50;15.87;;;12.03;;
18689;SDS011;9782;52.930;15.562;2022-11-13T13:02:28;17.03;;;11.10;;
18689;SDS011;9782;52.930;15.562;2022-11-13T13:05:05;15.00;;;10.70;;
18689;SDS011;9782;52.930;15.562;2022-11-13T13:07:47;16.00;;;12.23;;
18689;SDS011;9782;52.930;15.562;2022-11-13T13:10:30;13.50;;;9.83;;
18689;SDS011;9782;52.930;15.562;2022-11-13T13:13:03;16.13;;;11.33;;
18689;SDS011;9782;52.930;15.562;2022-11-13T13:15:38;14.70;;;9.53;;
18689;SDS011;9782;52.930;15.562;2022-11-13T13:18:11;14.20;;;8.90;;
18689;SDS011;9782;52.930;15.562;2022-11-13T13:20:57;11.77;;;8.93;;
18689;SDS011;9782;52.930;15.562;2022-11-13T13:23:28;13.50;;;8.10;;
18689;SDS011;9782;52.930;15.562;2022-11-13T13:26:05;10.20;;;7.10;;
18689;SDS011;9782;52.930;15.562;2022-11-13T13:28:40;13.80;;;8.73;;
18689;SDS011;9782;52.930;15.562;2022-11-13T13:31:13;8.80;;;6.87;;
18689;SDS011;9782;52.930;15.562;2022-11-13T13:34:01;9.50;;;7.40;;
18689;SDS011;9782;52.930;15.562;2022-11-13T13:36:41;9.77;;;6.87;;
18689;SDS011;9782;52.930;15.562;2022-11-13T13:39:17;9.40;;;6.53;;
18689;SDS011;9782;52.930;15.562;2022-11-13T13:41:57;8.77;;;6.60;;
18689;SDS011;9782;52.930;15.562;2022-11-13T13:44:51;9.87;;;6.10;;
18689;SDS011;9782;52.930;15.562;2022-11-13T13:47:28;9.77;;;6.67;;
18689;SDS011;9782;52.930;15.562;2022-11-13T13:49:59;8.47;;;5.73;;
18689;SDS011;9782;52.930;15.562;2022-11-13T13:52:27;7.70;;;5.70;;
18689;SDS011;9782;52.930;15.562;2022-11-13T13:54:57;8.23;;;6.20;;
18689;SDS011;9782;52.930;15.562;2022-11-13T13:57:26;7.87;;;5.77;;
18689;SDS011;9782;52.930;15.562;2022-11-13T13:59:54;10.53;;;7.27;;
18689;SDS011;9782;52.930;15.562;2022-11-13T14:02:22;9.23;;;6.07;;
18689;SDS011;9782;52.930;15.562;2022-11-13T14:04:50;7.83;;;5.43;;
18689;SDS011;9782;52.930;15.562;2022-11-13T14:07:21;8.03;;;5.83;;
18689;SDS011;9782;52.930;15.562;2022-11-13T14:10:05;8.43;;;6.10;;
18689;SDS011;9782;52.930;15.562;2022-11-13T14:12:39;7.67;;;5.63;;
18689;SDS011;9782;52.930;15.562;2022-11-13T14:15:15;8.30;;;5.53;;
18689;SDS011;9782;52.930;15.562;2022-11-13T14:17:50;8.40;;;5.97;;
18689;SDS011;9782;52.930;15.562;2022-11-13T14:20:19;7.67;;;5.33;;
18689;SDS011;9782;52.930;15.562;2022-11-13T14:22:48;9.10;;;5.70;;
18689;SDS011;9782;52.930;15.562;2022-11-13T14:25:19;9.57;;;5.63;;
18689;SDS011;9782;52.930;15.562;2022-11-13T14:27:50;8.53;;;6.07;;
18689;SDS011;9782;52.930;15.562;2022-11-13T14:30:21;7.33;;;5.50;;
18689;SDS011;9782;52.930;15.562;2022-11-13T14:32:49;8.93;;;5.30;;
18689;SDS011;9782;52.930;15.562;2022-11-13T14:35:18;8.17;;;5.80;;
18689;SDS011;9782;52.930;15.562;2022-11-13T14:37:47;7.23;;;5.53;;
18689;SDS011;9782;52.930;15.562;2022-11-13T14:40:18;11.87;;;6.70;;
18689;SDS011;9782;52.930;15.562;2022-11-13T14:42:48;11.30;;;7.83;;
18689;SDS011;9782;52.930;15.562;2022-11-13T14:45:19;7.00;;;5.17;;
18689;SDS011;9782;52.930;15.562;2022-11-13T14:47:55;9.13;;;5.83;;
18689;SDS011;9782;52.930;15.562;2022-11-13T14:50:24;7.53;;;5.70;;
18689;SDS011;9782;52.930;15.562;2022-11-13T14:52:57;9.23;;;6.37;;
18689;SDS011;9782;52.930;15.562;2022-11-13T14:55:26;9.23;;;5.93;;
18689;SDS011;9782;52.930;15.562;2022-11-13T14:57:56;8.10;;;6.07;;